Time,TemperatureF,DewpointF,PressureIn,WindDirection,WindDirectionDegrees,WindSpeedMPH,WindSpeedGustMPH,Humidity,HourlyPrecipIn,Conditions,Clouds,dailyrainin,SolarRadiationWatts/m^2,SoftwareType,DateUTC
2013-01-30 00:04:00,62.0,58.0,-100.00,SE,139,4.0,12.0,86,0.02,,,0.02,0.000000,,2013-01-30 05:04:00,
2013-01-30 00:32:00,63.0,58.0,-100.00,SE,145,5.0,16.0,83,0.00,,,0.02,0.000000,,2013-01-30 05:32:00,
2013-01-30 00:43:00,63.0,58.0,-100.00,SE,145,5.0,16.0,83,0.00,,,0.02,0.000000,,2013-01-30 05:43:00,
2013-01-30 00:52:00,63.0,58.0,-100.00,SE,145,5.0,16.0,83,0.00,,,0.02,0.000000,,2013-01-30 05:52:00,
2013-01-30 01:02:00,63.0,58.0,-100.00,SE,145,5.0,16.0,83,0.00,,,0.02,0.000000,,2013-01-30 06:02:00,
2013-01-30 01:32:00,64.0,57.0,-100.00,SSW,202,8.0,19.0,77,0.00,,,0.02,0.000000,,2013-01-30 06:32:00,
2013-01-30 01:42:00,64.0,57.0,-100.00,SSW,202,8.0,19.0,77,0.00,,,0.02,0.000000,,2013-01-30 06:42:00,
2013-01-30 01:52:00,64.0,57.0,-100.00,SSW,202,8.0,19.0,77,0.00,,,0.02,0.000000,,2013-01-30 06:52:00,
2013-01-30 02:02:00,64.0,57.0,-100.00,SSW,202,8.0,19.0,77,0.00,,,0.02,0.000000,,2013-01-30 07:02:00,
2013-01-30 02:32:00,64.0,54.0,-100.00,South,178,7.0,15.0,71,0.00,,,0.02,0.000000,,2013-01-30 07:32:00,
2013-01-30 02:42:00,64.0,54.0,-100.00,South,178,7.0,15.0,71,0.00,,,0.02,0.000000,,2013-01-30 07:42:00,
2013-01-30 02:52:00,64.0,54.0,-100.00,South,178,7.0,15.0,71,0.00,,,0.02,0.000000,,2013-01-30 07:52:00,
2013-01-30 03:02:00,64.0,54.0,-100.00,South,178,7.0,15.0,71,0.00,,,0.02,0.000000,,2013-01-30 08:02:00,
2013-01-30 03:32:00,63.0,55.0,-100.00,SSW,205,5.0,20.0,74,0.02,,,0.04,0.000000,,2013-01-30 08:32:00,
2013-01-30 03:42:00,63.0,55.0,-100.00,SSW,205,5.0,20.0,74,0.02,,,0.04,0.000000,,2013-01-30 08:42:00,
2013-01-30 03:52:00,63.0,55.0,-100.00,SSW,205,5.0,20.0,74,0.02,,,0.04,0.000000,,2013-01-30 08:52:00,
2013-01-30 04:02:00,63.0,55.0,-100.00,SSW,205,5.0,20.0,74,0.02,,,0.04,0.000000,,2013-01-30 09:02:00,
2013-01-30 04:32:00,63.0,58.0,-100.00,South,189,6.0,23.0,84,0.03,,,0.07,0.000000,,2013-01-30 09:32:00,
2013-01-30 04:42:00,63.0,58.0,-100.00,South,189,6.0,23.0,84,0.03,,,0.07,0.000000,,2013-01-30 09:42:00,
2013-01-30 04:52:00,63.0,58.0,-100.00,South,189,6.0,23.0,84,0.03,,,0.07,0.000000,,2013-01-30 09:52:00,
2013-01-30 05:01:00,63.0,58.0,-100.00,South,189,6.0,23.0,84,0.03,,,0.07,0.000000,,2013-01-30 10:01:00,
2013-01-30 05:32:00,64.0,58.0,-100.00,SSW,196,9.0,24.0,80,0.00,,,0.07,0.000000,,2013-01-30 10:32:00,
2013-01-30 05:42:00,64.0,58.0,-100.00,SSW,196,9.0,24.0,80,0.00,,,0.07,0.000000,,2013-01-30 10:42:00,
2013-01-30 05:52:00,64.0,58.0,-100.00,SSW,196,9.0,24.0,80,0.00,,,0.07,0.000000,,2013-01-30 10:52:00,
2013-01-30 06:02:00,64.0,58.0,-100.00,SSW,196,9.0,24.0,80,0.00,,,0.07,0.000000,,2013-01-30 11:02:00,
2013-01-30 06:33:00,62.0,57.0,-100.00,South,174,5.0,22.0,85,0.09,,,0.16,0.000000,,2013-01-30 11:33:00,
2013-01-30 06:42:00,62.0,57.0,-100.00,South,174,5.0,22.0,85,0.09,,,0.16,0.000000,,2013-01-30 11:42:00,
2013-01-30 06:52:00,62.0,57.0,-100.00,South,174,5.0,22.0,85,0.09,,,0.16,0.000000,,2013-01-30 11:52:00,
2013-01-30 07:02:00,62.0,57.0,-100.00,South,174,5.0,22.0,85,0.09,,,0.16,0.000000,,2013-01-30 12:02:00,
2013-01-30 07:33:00,61.0,58.0,-100.00,East,84,4.0,17.0,90,0.20,,,0.36,0.000000,,2013-01-30 12:33:00,
2013-01-30 07:43:00,61.0,58.0,-100.00,East,84,4.0,17.0,90,0.20,,,0.36,0.000000,,2013-01-30 12:43:00,
2013-01-30 08:03:00,61.0,58.0,-100.00,East,84,4.0,17.0,90,0.20,,,0.36,0.000000,,2013-01-30 13:03:00,
2013-01-30 08:33:00,63.0,60.0,-100.00,WSW,257,7.0,21.0,90,0.21,,,0.57,1.000000,,2013-01-30 13:33:00,
2013-01-30 08:43:00,63.0,60.0,-100.00,WSW,257,7.0,21.0,90,0.21,,,0.57,1.000000,,2013-01-30 13:43:00,
2013-01-30 08:53:00,63.0,60.0,-100.00,WSW,257,7.0,21.0,90,0.21,,,0.57,1.000000,,2013-01-30 13:53:00,
2013-01-30 09:03:00,63.0,60.0,-100.00,WSW,257,7.0,21.0,90,0.21,,,0.57,1.000000,,2013-01-30 14:03:00,
2013-01-30 09:33:00,63.0,59.0,-100.00,SSW,202,6.0,19.0,88,0.24,,,0.81,20.000000,,2013-01-30 14:33:00,
2013-01-30 09:43:00,63.0,59.0,-100.00,SSW,202,6.0,19.0,88,0.24,,,0.81,20.000000,,2013-01-30 14:43:00,
2013-01-30 09:53:00,63.0,59.0,-100.00,SSW,202,6.0,19.0,88,0.24,,,0.81,20.000000,,2013-01-30 14:53:00,
2013-01-30 10:03:00,63.0,59.0,-100.00,SSW,202,6.0,19.0,88,0.24,,,0.81,20.000000,,2013-01-30 15:03:00,
2013-01-30 10:33:00,65.0,60.0,-100.00,WSW,242,8.0,19.0,83,0.03,,,0.84,61.000000,,2013-01-30 15:33:00,
2013-01-30 10:43:00,65.0,60.0,-100.00,WSW,242,8.0,19.0,83,0.03,,,0.84,61.000000,,2013-01-30 15:43:00,
2013-01-30 10:53:00,65.0,60.0,-100.00,WSW,242,8.0,19.0,83,0.03,,,0.84,61.000000,,2013-01-30 15:53:00,
2013-01-30 11:03:00,65.0,60.0,-100.00,WSW,242,8.0,19.0,83,0.03,,,0.84,61.000000,,2013-01-30 16:03:00,
2013-01-30 11:33:00,65.0,59.0,-100.00,SW,229,6.0,24.0,81,0.04,,,0.88,176.000000,,2013-01-30 16:33:00,
2013-01-30 11:42:00,65.0,59.0,-100.00,SW,229,6.0,24.0,81,0.04,,,0.88,176.000000,,2013-01-30 16:42:00,
2013-01-30 11:52:00,65.0,59.0,-100.00,SW,229,6.0,24.0,81,0.04,,,0.88,176.000000,,2013-01-30 16:52:00,
2013-01-30 12:03:00,65.0,59.0,-100.00,SW,229,6.0,24.0,81,0.04,,,0.88,176.000000,,2013-01-30 17:03:00,
2013-01-30 12:33:00,63.0,59.0,-100.00,West,271,6.0,21.0,88,0.41,,,1.29,38.000000,,2013-01-30 17:33:00,
2013-01-30 12:43:00,63.0,59.0,-100.00,West,271,6.0,21.0,88,0.41,,,1.29,38.000000,,2013-01-30 17:43:00,
2013-01-30 12:53:00,63.0,59.0,-100.00,West,271,6.0,21.0,88,0.41,,,1.29,38.000000,,2013-01-30 17:53:00,
2013-01-30 13:03:00,63.0,59.0,-100.00,West,271,6.0,21.0,88,0.41,,,1.29,38.000000,,2013-01-30 18:03:00,
2013-01-30 13:33:00,59.0,55.0,-100.00,WSW,248,8.0,26.0,88,0.56,,,1.85,11.000000,,2013-01-30 18:33:00,
2013-01-30 13:43:00,59.0,55.0,-100.00,WSW,248,8.0,26.0,88,0.56,,,1.85,11.000000,,2013-01-30 18:43:00,
2013-01-30 13:53:00,59.0,55.0,-100.00,WSW,248,8.0,26.0,88,0.56,,,1.85,11.000000,,2013-01-30 18:53:00,
2013-01-30 14:03:00,59.0,55.0,-100.00,WSW,248,8.0,26.0,88,0.56,,,1.85,11.000000,,2013-01-30 19:03:00,
2013-01-30 14:33:00,57.0,54.0,-100.00,South,174,4.0,17.0,91,0.26,,,2.11,24.000000,,2013-01-30 19:33:00,
2013-01-30 14:43:00,57.0,54.0,-100.00,South,174,4.0,17.0,91,0.26,,,2.11,24.000000,,2013-01-30 19:43:00,
2013-01-30 14:53:00,57.0,54.0,-100.00,South,174,4.0,17.0,91,0.26,,,2.11,24.000000,,2013-01-30 19:53:00,
2013-01-30 15:03:00,57.0,54.0,-100.00,South,174,4.0,17.0,91,0.26,,,2.11,24.000000,,2013-01-30 20:03:00,
2013-01-30 15:33:00,56.0,55.0,-100.00,SE,127,2.0,9.0,97,0.39,,,2.50,17.000000,,2013-01-30 20:33:00,
2013-01-30 15:42:00,56.0,55.0,-100.00,SE,127,2.0,9.0,97,0.39,,,2.50,17.000000,,2013-01-30 20:42:00,
2013-01-30 15:53:00,56.0,55.0,-100.00,SE,127,2.0,9.0,97,0.39,,,2.50,17.000000,,2013-01-30 20:53:00,
2013-01-30 16:04:00,56.0,55.0,-100.00,SE,127,2.0,9.0,97,0.39,,,2.50,17.000000,,2013-01-30 21:04:00,
2013-01-30 16:32:00,56.0,55.0,-100.00,SSE,156,4.0,8.0,98,0.39,,,2.89,16.000000,,2013-01-30 21:32:00,
2013-01-30 16:43:00,56.0,55.0,-100.00,SSE,156,4.0,8.0,98,0.39,,,2.89,16.000000,,2013-01-30 21:43:00,
2013-01-30 16:53:00,56.0,55.0,-100.00,SSE,156,4.0,8.0,98,0.39,,,2.89,16.000000,,2013-01-30 21:53:00,
2013-01-30 17:03:00,56.0,55.0,-100.00,SSE,156,4.0,8.0,98,0.39,,,2.89,16.000000,,2013-01-30 22:03:00,
2013-01-30 17:33:00,54.0,52.0,-100.00,NNW,348,6.0,10.0,94,0.26,,,3.15,12.000000,,2013-01-30 22:33:00,
2013-01-30 17:43:00,54.0,52.0,-100.00,NNW,348,6.0,10.0,94,0.26,,,3.15,12.000000,,2013-01-30 22:43:00,
2013-01-30 17:53:00,54.0,52.0,-100.00,NNW,348,6.0,10.0,94,0.26,,,3.15,12.000000,,2013-01-30 22:53:00,
2013-01-30 18:03:00,54.0,52.0,-100.00,NNW,348,6.0,10.0,94,0.26,,,3.15,12.000000,,2013-01-30 23:03:00,
2013-01-30 18:33:00,47.0,44.0,-100.00,NW,314,5.0,17.0,88,0.19,,,3.34,1.000000,,2013-01-30 23:33:00,
2013-01-30 18:42:00,47.0,44.0,-100.00,NW,314,5.0,17.0,88,0.19,,,3.34,1.000000,,2013-01-30 23:42:00,
2013-01-30 18:52:00,47.0,44.0,-100.00,NW,314,5.0,17.0,88,0.19,,,3.34,1.000000,,2013-01-30 23:52:00,
2013-01-30 19:02:00,47.0,44.0,-100.00,NW,314,5.0,17.0,88,0.19,,,3.34,1.000000,,2013-01-31 00:02:00,
2013-01-30 19:32:00,46.0,45.0,-100.00,ESE,114,1.0,7.0,96,0.10,,,3.44,0.000000,,2013-01-31 00:32:00,
2013-01-30 19:43:00,46.0,45.0,-100.00,ESE,114,1.0,7.0,96,0.10,,,3.44,0.000000,,2013-01-31 00:43:00,
2013-01-30 19:53:00,46.0,45.0,-100.00,ESE,114,1.0,7.0,96,0.10,,,3.44,0.000000,,2013-01-31 00:53:00,
2013-01-30 20:02:00,46.0,45.0,-100.00,ESE,114,1.0,7.0,96,0.10,,,3.44,0.000000,,2013-01-31 01:02:00,
2013-01-30 21:32:00,43.0,41.0,-100.00,South,184,4.0,13.0,94,-99.99,,,3.51,0.000000,,2013-01-31 02:32:00,
2013-01-30 21:42:00,43.0,41.0,-100.00,South,184,4.0,13.0,94,-99.99,,,3.51,0.000000,,2013-01-31 02:42:00,
2013-01-30 21:52:00,43.0,41.0,-100.00,South,184,4.0,13.0,94,-99.99,,,3.51,0.000000,,2013-01-31 02:52:00,
2013-01-30 22:03:00,43.0,41.0,-100.00,South,184,4.0,13.0,94,-99.99,,,3.51,0.000000,,2013-01-31 03:03:00,
2013-01-30 22:32:00,42.0,40.0,-100.00,West,268,3.0,10.0,91,0.00,,,3.51,0.000000,,2013-01-31 03:32:00,
2013-01-30 22:42:00,42.0,40.0,-100.00,West,268,3.0,10.0,91,0.00,,,3.51,0.000000,,2013-01-31 03:42:00,
2013-01-30 22:52:00,42.0,40.0,-100.00,West,268,3.0,10.0,91,0.00,,,3.51,0.000000,,2013-01-31 03:52:00,
2013-01-30 23:02:00,42.0,40.0,-100.00,West,268,3.0,10.0,91,0.00,,,3.51,0.000000,,2013-01-31 04:02:00,
2013-01-30 23:32:00,41.0,40.0,-100.00,NW,312,8.0,20.0,97,0.05,,,3.54,0.000000,,2013-01-31 04:32:00,
2013-01-30 23:42:00,41.0,40.0,-100.00,NW,312,8.0,20.0,97,0.05,,,3.54,0.000000,,2013-01-31 04:42:00,
2013-01-30 23:52:00,41.0,40.0,-100.00,NW,312,8.0,20.0,97,0.05,,,3.54,0.000000,,2013-01-31 04:52:00,